SBCG/CGR METAR and TAF weather

Enter ICAO airport designator
Station Type Date Time Source
SBCG METAR 2018/12/15 23:00 UTC NOAA

SBCG 152300Z 35005KT 9999 VCTS FEW040 FEW050CB BKN100 26/20 Q1016


Station Type Date Time Source
SBCG Decoded METAR 2018/12/15 23:00 UTC NOAA

Campo Grande Aeroporto , Brazil (SBCG) 20-28S 054-40W 567M
Dec 15, 2018 - 06:00 PM EST / 2018.12.15 2300 UTC
Wind: from the N (350 degrees) at 6 MPH (5 KT):0
Visibility: greater than 7 mile(s):0
Sky conditions: mostly cloudy
Weather: thunder in the vicinity; Cumulonimbus clouds observed
Temperature: 78 F (26 C)
Dew Point: 68 F (20 C)
Relative Humidity: 69%
Pressure (altimeter): 30.00 in. Hg (1016 hPa)
ob: SBCG 152300Z 35005KT 9999 VCTS FEW040 FEW050CB BKN100 26/20 Q1016
cycle: 23

Station Type Date Time Source
SBCG TAF 2018/12/15 18:33 UTC NOAA

TAF SBCG 151515Z 1518/1618 34009KT 9999 SCT040 FEW045TCU TN23/1608Z TX33/1617Z
BECMG 1523/1601 03007KT FEW040
BECMG 1613/1615 34010KT SCT040 FEW045TCU
RMK PDW


Example: see airport list